KGUS/GUS METAR and TAF weather

Enter ICAO airport designator
Station Type Date Time Source
KGUS METAR 2020/07/14 21:56 UTC NOAA

KGUS 142156Z AUTO 19004KT 10SM CLR 28/17 A3004 RMK AO2 SLP172 T02840173 $


Station Type Date Time Source
KGUS Decoded METAR 2020/07/14 21:56 UTC NOAA

Grissom Air Force Base / Peru, IN, United States (KGUS) 40-39N 086-09W
Jul 14, 2020 - 05:56 PM EDT / 2020.07.14 2156 UTC
Wind: from the S (190 degrees) at 5 MPH (4 KT):0
Visibility: 10 mile(s):0
Sky conditions: clear
Temperature: 83.1 F (28.4 C)
Dew Point: 63.1 F (17.3 C)
Relative Humidity: 51%
Pressure (altimeter): 30.04 in. Hg (1017 hPa)
ob: KGUS 142156Z AUTO 19004KT 10SM CLR 28/17 A3004 RMK AO2 SLP172 T02840173
cycle: 22

Station Type Date Time Source
KGUS TAF 2020/07/14 19:21 UTC NOAA

TAF KGUS 141903Z 1419/1601 VRB06KT 9999 SKC QNH2999INS
BECMG 1514/1515 19012KT 9999 SCT210 QNH3001INS TX30/1518Z TN18/1508Z

Example: see airport list